Time;durP1;ratioP1;P1;durP2;ratioP2;P2;SDS_P1;SDS_P2;PMS_P1;PMS_P2;Temp;Humidity;BMP_temperature;BMP_pressure;BME280_temperature;BME280_humidity;BME280_pressure;Samples;Min_cycle;Max_cycle;Signal;HPM_P1;HPM_P2
2023/05/12 00:01:00;;;;;;;15.15;6.72;;;14.60;99.90;;;14.79;100.00;100810.06;5171445;28;20046;-70
2023/05/12 00:03:34;;;;;;;16.10;7.00;;;14.60;99.90;;;14.77;100.00;100808.28;5180009;28;20553;-69
2023/05/12 00:06:07;;;;;;;15.43;6.53;;;14.60;99.90;;;14.75;100.00;100810.88;5169847;28;20129;-69
2023/05/12 00:08:40;;;;;;;18.13;7.70;;;14.60;99.90;;;14.72;100.00;100818.69;5173224;28;20490;-69
2023/05/12 00:11:12;;;;;;;18.20;7.72;;;14.50;99.90;;;14.68;100.00;100814.25;5168566;28;20496;-69
2023/05/12 00:13:44;;;;;;;20.38;8.13;;;14.50;99.90;;;14.64;100.00;100815.03;5179075;28;20066;-69
2023/05/12 00:16:17;;;;;;;20.10;8.60;;;14.50;99.90;;;14.62;100.00;100811.53;5178531;28;20050;-69
2023/05/12 00:18:52;;;;;;;18.23;7.68;;;14.50;99.90;;;14.61;100.00;100815.00;5174788;28;20038;-69
2023/05/12 00:21:24;;;;;;;15.95;6.90;;;14.40;99.90;;;14.60;100.00;100811.47;5169940;28;20069;-68
2023/05/12 00:23:56;;;;;;;19.90;8.45;;;14.40;99.90;;;14.58;100.00;100812.31;5170999;28;20038;-68
2023/05/12 00:26:28;;;;;;;17.08;7.43;;;14.40;99.90;;;14.57;100.00;100807.91;5170676;28;20050;-69
2023/05/12 00:29:00;;;;;;;18.17;7.25;;;14.40;99.90;;;14.58;100.00;100815.81;5183444;28;20503;-69
2023/05/12 00:31:32;;;;;;;18.13;8.27;;;14.40;99.90;;;14.58;100.00;100809.69;5180502;28;20050;-70
2023/05/12 00:34:06;;;;;;;18.23;8.05;;;14.40;99.90;;;14.54;100.00;100808.75;5174097;28;20058;-69
2023/05/12 00:36:39;;;;;;;19.27;7.85;;;14.40;99.90;;;14.53;100.00;100813.94;5182247;28;20060;-68
2023/05/12 00:39:11;;;;;;;18.85;7.43;;;14.40;99.90;;;14.52;100.00;100814.81;5171797;28;20141;-68
2023/05/12 00:41:44;;;;;;;16.85;7.35;;;14.40;99.90;;;14.49;100.00;100810.41;5163032;28;20050;-69
2023/05/12 00:44:17;;;;;;;13.20;6.18;;;14.30;99.90;;;14.50;100.00;100806.03;5175571;28;20045;-69
2023/05/12 00:46:50;;;;;;;14.13;6.43;;;14.30;99.90;;;14.51;100.00;100802.56;5146602;28;20038;-69
2023/05/12 00:49:24;;;;;;;22.08;8.32;;;14.30;99.90;;;14.51;100.00;100802.56;5177965;28;20446;-68
2023/05/12 00:52:01;;;;;;;16.65;7.32;;;14.30;99.90;;;14.49;100.00;100786.78;5155509;28;20503;-68
2023/05/12 00:54:35;;;;;;;18.20;7.72;;;14.30;99.90;;;14.43;100.00;100784.03;5169563;28;20132;-70
2023/05/12 00:57:08;;;;;;;18.73;7.80;;;14.30;99.90;;;14.40;100.00;100782.22;5171039;28;20049;-68
2023/05/12 00:59:40;;;;;;;16.52;6.65;;;14.30;99.90;;;14.40;100.00;100784.81;5169205;28;20073;-69
2023/05/12 01:02:12;;;;;;;15.93;7.25;;;14.30;99.90;;;14.42;100.00;100782.25;5174590;28;20085;-69
2023/05/12 01:04:46;;;;;;;15.60;6.35;;;14.30;99.90;;;14.42;100.00;100773.50;5181398;28;20375;-69
2023/05/12 01:07:23;;;;;;;14.32;5.90;;;14.30;99.90;;;14.44;100.00;100777.03;5174975;28;20042;-68
2023/05/12 01:09:56;;;;;;;14.80;6.03;;;14.30;99.90;;;14.44;100.00;100780.53;5175098;28;20035;-69
2023/05/12 01:12:31;;;;;;;13.40;6.00;;;14.30;99.90;;;14.42;100.00;100776.13;5149551;28;20050;-69
2023/05/12 01:15:04;;;;;;;18.65;7.20;;;14.30;99.90;;;14.37;100.00;100774.28;5177462;28;20054;-69
2023/05/12 01:17:37;;;;;;;15.43;6.15;;;14.20;99.90;;;14.35;100.00;100778.63;5159398;28;20507;-69
2023/05/12 01:20:16;;;;;;;14.40;5.78;;;14.20;99.90;;;14.36;100.00;100777.78;5179261;28;20398;-69
2023/05/12 01:22:49;;;;;;;15.25;6.05;;;14.20;99.90;;;14.37;100.00;100779.53;5181845;28;20049;-70
2023/05/12 01:25:24;;;;;;;11.57;4.85;;;14.20;99.90;;;14.37;100.00;100773.41;5173395;28;20090;-69
2023/05/12 01:28:00;;;;;;;12.75;5.10;;;14.20;99.90;;;14.38;100.00;100773.44;5168841;28;20128;-69
2023/05/12 01:30:33;;;;;;;12.40;4.82;;;14.20;99.90;;;14.42;100.00;100776.13;5185174;28;20037;-69
2023/05/12 01:33:07;;;;;;;12.65;5.45;;;14.20;99.90;;;14.42;100.00;100760.41;5164997;28;20046;-69
2023/05/12 01:35:39;;;;;;;13.65;5.35;;;14.20;99.90;;;14.39;100.00;100767.31;5165583;28;20116;-69
2023/05/12 01:38:11;;;;;;;13.07;5.28;;;14.20;99.90;;;14.38;100.00;100757.69;5164605;28;20046;-70
2023/05/12 01:40:46;;;;;;;11.88;5.05;;;14.20;99.90;;;14.38;100.00;100762.94;5167210;28;20049;-69
2023/05/12 01:43:19;;;;;;;15.27;5.97;;;14.20;99.90;;;14.38;100.00;100760.31;5184823;28;20146;-70
2023/05/12 01:45:51;;;;;;;12.43;5.13;;;14.20;99.90;;;14.39;100.00;100762.09;5184519;28;20123;-69
2023/05/12 01:48:23;;;;;;;12.15;4.97;;;14.20;99.90;;;14.42;100.00;100758.66;5178020;28;20042;-69
2023/05/12 01:50:59;;;;;;;12.52;5.32;;;14.20;99.90;;;14.43;100.00;100754.28;5176277;28;20034;-70
2023/05/12 01:53:31;;;;;;;10.88;4.45;;;14.30;99.90;;;14.47;100.00;100757.00;5165395;28;20082;-69
2023/05/12 01:56:05;;;;;;;10.90;3.72;;;14.30;99.90;;;14.48;100.00;100758.81;5155894;28;20419;-69
2023/05/12 01:58:41;;;;;;;11.77;5.18;;;14.30;99.90;;;14.49;100.00;100757.06;5173488;28;20050;-68
2023/05/12 02:01:13;;;;;;;10.05;3.90;;;14.30;99.90;;;14.51;100.00;100757.97;5178566;28;20072;-69
2023/05/12 02:03:46;;;;;;;11.57;4.90;;;14.40;99.90;;;14.51;100.00;100750.97;5172540;28;20100;-69
2023/05/12 02:06:20;;;;;;;11.98;4.47;;;14.30;99.90;;;14.51;100.00;100760.59;5165968;28;20574;-70
2023/05/12 02:08:54;;;;;;;15.35;6.47;;;14.30;99.90;;;14.48;100.00;100750.94;5163770;28;20524;-70
2023/05/12 02:11:27;;;;;;;11.48;4.82;;;14.30;99.90;;;14.45;100.00;100756.06;5171351;28;20046;-69
2023/05/12 02:14:00;;;;;;;12.10;4.90;;;14.30;99.90;;;14.47;100.00;100750.88;5160175;28;20070;-69
2023/05/12 02:16:33;;;;;;;10.68;4.53;;;14.30;99.90;;;14.48;100.00;100755.31;5178107;28;20045;-69
2023/05/12 02:19:05;;;;;;;10.30;4.32;;;14.30;99.90;;;14.50;100.00;100758.81;5184299;28;20048;-70
2023/05/12 02:21:38;;;;;;;10.38;4.10;;;14.30;99.90;;;14.51;100.00;100756.22;5177799;28;20065;-68
2023/05/12 02:24:10;;;;;;;12.27;4.47;;;14.40;99.90;;;14.53;100.00;100758.88;5154569;28;20085;-69
2023/05/12 02:26:42;;;;;;;12.32;4.50;;;14.40;99.90;;;14.54;100.00;100750.13;5179960;28;20503;-69
2023/05/12 02:29:17;;;;;;;9.73;4.70;;;14.40;99.90;;;14.55;100.00;100754.56;5170145;28;20041;-69
2023/05/12 02:31:49;;;;;;;9.30;4.15;;;14.40;99.90;;;14.55;100.00;100749.31;5172140;28;20515;-68
2023/05/12 02:34:22;;;;;;;11.02;4.55;;;14.40;99.90;;;14.55;100.00;100746.69;5171723;28;20089;-70
2023/05/12 02:36:55;;;;;;;10.20;4.35;;;14.30;99.90;;;14.53;100.00;100758.88;5174884;28;20057;-69
2023/05/12 02:39:28;;;;;;;13.05;4.95;;;14.30;99.90;;;14.53;100.00;100748.38;5164526;28;20626;-69
2023/05/12 02:42:02;;;;;;;12.20;5.25;;;14.30;99.90;;;14.55;100.00;100754.56;5161340;28;20049;-69
2023/05/12 02:44:36;;;;;;;14.25;5.60;;;14.40;99.90;;;14.54;100.00;100748.44;5176224;28;20042;-68
2023/05/12 02:47:08;;;;;;;9.90;4.80;;;14.40;99.90;;;14.54;100.00;100755.38;5171820;28;20050;-69
2023/05/12 02:49:40;;;;;;;13.45;5.05;;;14.40;99.90;;;14.54;100.00;100755.38;5172915;28;20048;-69
2023/05/12 02:52:12;;;;;;;10.50;4.85;;;14.40;99.90;;;14.54;100.00;100760.63;5163468;28;20050;-69
2023/05/12 02:54:44;;;;;;;12.52;5.10;;;14.30;99.90;;;14.53;100.00;100753.63;5172702;28;20134;-68
2023/05/12 02:57:17;;;;;;;11.80;5.40;;;14.40;99.90;;;14.52;100.00;100747.50;5169374;28;20137;-69
2023/05/12 02:59:51;;;;;;;13.20;5.75;;;14.40;99.90;;;14.52;100.00;100746.63;5151017;28;20528;-69
2023/05/12 03:02:23;;;;;;;9.50;4.40;;;14.40;99.90;;;14.53;100.00;100743.13;5182812;28;20068;-69
2023/05/12 03:04:56;;;;;;;12.05;5.10;;;14.40;99.90;;;14.51;100.00;100742.22;5218452;22;20056;-79
2023/05/12 03:07:28;;;;;;;11.13;4.97;;;14.40;99.90;;;14.49;100.00;100743.94;5231218;28;20059;-79
2023/05/12 03:10:01;;;;;;;7.97;3.85;;;14.40;99.90;;;14.48;100.00;100737.81;5242908;28;20044;-79
2023/05/12 03:12:33;;;;;;;8.43;3.90;;;14.30;99.90;;;14.47;100.00;100743.00;5258702;28;20036;-78
2023/05/12 03:15:08;;;;;;;8.50;3.72;;;14.30;99.90;;;14.46;100.00;100743.84;5238717;28;20046;-79
2023/05/12 03:17:41;;;;;;;11.90;4.57;;;14.30;99.90;;;14.46;100.00;100735.97;5205118;28;20058;-79
2023/05/12 03:20:13;;;;;;;8.07;4.15;;;14.30;99.90;;;14.45;100.00;100739.47;5218558;28;20048;-79
2023/05/12 03:22:45;;;;;;;9.10;4.28;;;14.30;99.90;;;14.47;100.00;100741.28;5223204;28;20096;-79
2023/05/12 03:25:17;;;;;;;8.23;4.25;;;14.30;99.90;;;14.50;100.00;100740.47;5205526;28;20095;-79
2023/05/12 03:27:50;;;;;;;8.52;4.30;;;14.40;99.90;;;14.51;100.00;100739.59;5230029;28;20049;-80
2023/05/12 03:30:23;;;;;;;8.25;3.75;;;14.40;99.90;;;14.52;100.00;100744.00;5204865;28;20092;-78
2023/05/12 03:32:55;;;;;;;8.23;3.78;;;14.40;99.90;;;14.54;100.00;100740.56;5215832;28;20087;-78
2023/05/12 03:35:27;;;;;;;8.70;3.95;;;14.40;99.90;;;14.56;100.00;100740.56;5210656;28;20049;-79
2023/05/12 03:37:59;;;;;;;6.63;3.72;;;14.40;99.90;;;14.56;100.00;100728.34;5221738;28;20065;-79
2023/05/12 03:40:32;;;;;;;7.15;3.42;;;14.40;99.90;;;14.58;100.00;100741.47;5221765;28;20048;-79
2023/05/12 03:43:04;;;;;;;7.88;3.72;;;14.40;99.90;;;14.56;100.00;100735.34;5196973;28;20492;-77
2023/05/12 03:45:37;;;;;;;8.23;3.83;;;14.40;99.90;;;14.52;100.00;100737.00;5209554;28;20077;-79
2023/05/12 03:48:10;;;;;;;8.15;3.95;;;14.40;99.90;;;14.46;100.00;100731.66;5217987;28;20045;-78
2023/05/12 03:50:42;;;;;;;9.13;4.68;;;14.30;99.90;;;14.38;100.00;100733.22;5223321;28;20134;-78
2023/05/12 03:53:14;;;;;;;9.45;4.60;;;14.40;99.90;;;14.30;100.00;100729.56;5205221;28;20119;-79
2023/05/12 03:55:46;;;;;;;7.72;3.78;;;14.30;99.90;;;14.23;100.00;100728.59;5246547;28;20052;-79
2023/05/12 03:58:18;;;;;;;6.75;3.40;;;14.20;99.90;;;14.16;100.00;100731.94;5205921;28;20120;-78
2023/05/12 04:00:52;;;;;;;6.13;3.15;;;14.20;99.90;;;14.11;100.00;100738.81;5204213;28;20049;-79
2023/05/12 04:03:24;;;;;;;5.70;2.63;;;14.10;99.90;;;14.08;100.00;100738.75;5212711;28;20060;-79
2023/05/12 04:05:59;;;;;;;6.28;3.13;;;14.10;99.90;;;14.04;100.00;100737.81;5227635;28;20457;-78
2023/05/12 04:08:31;;;;;;;4.13;2.40;;;14.10;99.90;;;13.97;100.00;100746.41;5224607;28;20048;-78
2023/05/12 04:11:04;;;;;;;4.72;2.63;;;14.00;99.90;;;13.97;100.00;100745.53;5226527;28;20051;-79
2023/05/12 04:13:36;;;;;;;4.25;2.30;;;14.00;99.90;;;13.91;100.00;100755.91;5209321;28;20080;-79
2023/05/12 04:16:09;;;;;;;5.10;2.72;;;13.90;99.90;;;13.88;100.00;100750.56;5215048;28;20053;-79
2023/05/12 04:18:41;;;;;;;3.70;2.30;;;13.90;99.90;;;13.87;100.00;100752.31;5229897;28;20052;-78
2023/05/12 04:21:13;;;;;;;3.88;2.00;;;13.90;99.90;;;13.86;100.00;100758.41;5218815;28;20049;-79
2023/05/12 04:23:45;;;;;;;3.10;1.73;;;13.90;99.90;;;13.85;100.00;100761.88;5212024;28;20060;-79
2023/05/12 04:26:17;;;;;;;3.75;1.83;;;13.90;99.90;;;13.83;100.00;100764.47;5227226;28;20123;-79
2023/05/12 04:28:50;;;;;;;3.15;2.03;;;13.90;99.90;;;13.82;100.00;100765.34;5224965;28;20037;-83
2023/05/12 04:31:23;;;;;;;3.00;1.80;;;13.80;99.90;;;14.07;100.00;100771.06;5223584;28;20084;-79
2023/05/12 04:33:56;;;;;;;5.53;1.75;;;14.00;99.90;;;14.20;100.00;100770.44;5217923;28;20048;-79
2023/05/12 04:36:30;;;;;;;5.47;1.65;;;14.10;99.90;;;14.33;100.00;100777.69;5247153;28;20096;-80
2023/05/12 04:39:03;;;;;;;2.58;1.63;;;14.20;99.90;;;14.49;100.00;100773.69;5209422;28;20111;-79
2023/05/12 04:41:35;;;;;;;1.88;1.45;;;14.30;99.90;;;14.61;100.00;100780.91;5205318;28;20048;-79
2023/05/12 04:44:08;;;;;;;3.38;1.83;;;14.50;99.90;;;14.72;100.00;100781.06;5221411;28;20124;-79
2023/05/12 04:46:42;;;;;;;2.65;1.63;;;14.60;99.90;;;14.79;100.00;100781.19;5229157;28;20037;-81
2023/05/12 04:49:14;;;;;;;2.25;1.58;;;14.70;99.90;;;14.87;100.00;100790.09;5226626;28;20105;-81
2023/05/12 04:51:46;;;;;;;2.00;1.73;;;14.70;99.90;;;14.93;100.00;100789.31;5217357;28;20410;-81
2023/05/12 04:54:18;;;;;;;2.25;1.80;;;14.80;99.90;;;14.85;100.00;100791.81;5231154;28;20055;-81
2023/05/12 04:56:50;;;;;;;2.40;1.50;;;14.80;99.90;;;14.80;100.00;100796.13;5227605;28;20143;-80
2023/05/12 04:59:22;;;;;;;3.05;1.70;;;14.70;99.90;;;14.84;100.00;100805.78;5210400;28;20045;-79
2023/05/12 05:01:58;;;;;;;2.85;1.42;;;14.70;99.90;;;14.77;100.00;100803.91;5225102;28;20072;-80
2023/05/12 05:04:30;;;;;;;2.50;1.50;;;14.70;99.90;;;14.78;100.00;100812.66;5242607;28;20312;-78
2023/05/12 05:07:02;;;;;;;1.80;1.52;;;14.70;99.90;;;14.79;100.00;100809.19;5208986;28;20053;-79
2023/05/12 05:09:35;;;;;;;2.13;1.48;;;14.70;99.90;;;14.78;100.00;100810.94;5217958;28;20055;-78
2023/05/12 05:12:08;;;;;;;2.20;1.52;;;14.70;99.90;;;14.79;100.00;100817.06;5218596;28;20041;-81
2023/05/12 05:14:40;;;;;;;3.35;1.55;;;14.70;99.90;;;14.83;100.00;100819.78;5209029;28;20535;-81
2023/05/12 05:17:14;;;;;;;2.42;1.50;;;14.70;99.90;;;14.78;100.00;100823.16;5225451;28;20045;-80
2023/05/12 05:19:46;;;;;;;2.63;2.03;;;14.70;99.90;;;14.76;100.00;100825.78;5208881;28;20048;-79
2023/05/12 05:22:18;;;;;;;1.83;1.42;;;14.70;99.90;;;14.72;100.00;100818.69;5222998;28;20483;-80
2023/05/12 05:24:51;;;;;;;2.92;1.80;;;14.70;99.90;;;14.75;100.00;100829.25;5221440;28;20052;-80
2023/05/12 05:27:23;;;;;;;3.05;1.60;;;14.70;99.90;;;14.76;100.00;100831.03;5238909;28;20055;-81
2023/05/12 05:29:56;;;;;;;1.73;1.40;;;14.70;99.90;;;14.73;100.00;100830.94;5226854;28;20044;-79
2023/05/12 05:32:29;;;;;;;3.17;1.70;;;14.70;99.90;;;14.81;100.00;100837.25;5214269;28;20057;-81
2023/05/12 05:35:02;;;;;;;2.33;1.70;;;14.70;99.90;;;14.76;100.00;100831.03;5207246;28;20061;-82
2023/05/12 05:37:35;;;;;;;2.67;1.80;;;14.70;99.90;;;14.72;100.00;100838.78;5217621;28;20132;-80
2023/05/12 05:40:09;;;;;;;2.13;1.40;;;14.70;99.90;;;14.75;100.00;100849.38;5219592;28;21327;-80
2023/05/12 05:42:41;;;;;;;2.85;1.55;;;14.60;99.90;;;14.68;100.00;100843.13;5209825;28;20045;-80
2023/05/12 05:45:13;;;;;;;6.63;1.90;;;14.60;99.90;;;14.62;100.00;100845.63;5225350;28;20098;-81
2023/05/12 05:47:48;;;;;;;2.85;1.88;;;14.60;99.90;;;14.60;100.00;100855.19;5218912;28;20091;-80
2023/05/12 05:50:21;;;;;;;3.60;1.70;;;14.50;99.90;;;14.57;100.00;100856.00;5237767;28;20071;-80
2023/05/12 05:52:54;;;;;;;2.60;1.77;;;14.50;99.90;;;14.58;100.00;100859.53;5225644;28;20048;-82
2023/05/12 05:55:26;;;;;;;3.22;1.95;;;14.50;99.90;;;14.63;100.00;100860.50;5238206;28;20162;-82
2023/05/12 05:57:58;;;;;;;3.90;2.45;;;14.50;99.90;;;14.66;100.00;100866.69;5247709;28;20052;-81
2023/05/12 06:00:31;;;;;;;3.53;2.70;;;14.60;99.90;;;14.64;100.00;100867.50;5229655;28;20462;-82
2023/05/12 06:03:04;;;;;;;5.30;1.95;;;14.50;99.90;;;14.61;100.00;100870.09;5239832;28;20136;-81
2023/05/12 06:05:36;;;;;;;2.42;1.80;;;14.60;99.90;;;14.63;100.00;100878.88;5232861;28;20074;-78
2023/05/12 06:08:11;;;;;;;3.72;2.25;;;14.60;99.90;;;14.67;100.00;100878.09;5229954;28;20147;-79
2023/05/12 06:10:44;;;;;;;3.22;2.30;;;14.60;99.90;;;14.70;100.00;100888.63;5213929;28;20415;-80
2023/05/12 06:13:16;;;;;;;2.97;1.92;;;14.60;99.90;;;14.72;100.00;100892.16;5230345;28;20132;-78
2023/05/12 06:15:48;;;;;;;4.15;2.30;;;14.60;99.90;;;14.78;100.00;100894.91;5216692;28;20037;-78
2023/05/12 06:18:22;;;;;;;3.88;2.30;;;14.60;99.90;;;14.76;100.00;100887.84;5223978;28;20041;-78
2023/05/12 06:20:54;;;;;;;3.55;2.65;;;14.70;99.90;;;14.80;100.00;100903.69;5236038;28;20698;-79
2023/05/12 06:23:26;;;;;;;5.25;2.45;;;14.70;99.90;;;14.81;100.00;100897.59;5211025;28;20410;-78
2023/05/12 06:25:58;;;;;;;4.53;2.40;;;14.70;99.90;;;14.86;100.00;100906.41;5237038;28;20063;-78
2023/05/12 06:28:33;;;;;;;5.47;2.00;;;14.70;99.90;;;14.90;100.00;100903.00;5216744;28;20143;-79
2023/05/12 06:31:07;;;;;;;2.67;1.90;;;14.80;99.90;;;14.91;100.00;100902.16;5224576;28;20136;-79
2023/05/12 06:33:41;;;;;;;;;;;14.80;99.90;;;14.97;100.00;100905.75;5233106;28;20111;-81
2023/05/12 06:36:13;;;;;;;2.70;2.08;;;14.80;99.90;;;14.98;100.00;100904.88;5221472;28;19935;-78
2023/05/12 06:38:45;;;;;;;2.95;1.77;;;14.90;99.90;;;14.91;100.00;100910.03;5239152;28;20506;-79
2023/05/12 06:41:18;;;;;;;2.60;1.85;;;14.80;99.90;;;15.02;100.00;100911.97;5237309;28;20037;-79
2023/05/12 06:43:51;;;;;;;2.05;1.70;;;14.80;99.90;;;15.08;100.00;100917.34;5221132;28;20139;-76
2023/05/12 06:46:28;;;;;;;2.45;1.63;;;14.90;99.90;;;15.18;100.00;100919.25;5219798;28;20428;-81
2023/05/12 06:49:01;;;;;;;2.08;1.75;;;15.10;99.90;;;15.18;100.00;100914.88;5228318;28;20076;-80
2023/05/12 06:51:34;;;;;;;3.08;1.90;;;15.10;99.90;;;15.13;100.00;100926.19;5219273;28;20049;-79
2023/05/12 06:54:06;;;;;;;1.88;1.52;;;15.10;99.90;;;15.09;100.00;100926.97;5218906;28;20118;-80
2023/05/12 06:56:38;;;;;;;4.05;1.83;;;15.00;99.90;;;15.05;100.00;100927.78;5218772;28;20590;-79
2023/05/12 06:59:11;;;;;;;3.00;1.65;;;15.00;99.90;;;15.11;100.00;100930.50;5238008;28;20041;-74
2023/05/12 07:01:43;;;;;;;2.78;1.88;;;15.10;99.90;;;15.19;100.00;100931.53;5230264;28;20231;-81
2023/05/12 07:04:16;;;;;;;2.50;1.75;;;15.10;99.90;;;15.16;100.00;100931.47;5236783;28;20048;-79
2023/05/12 07:06:48;;;;;;;3.17;2.03;;;15.10;99.90;;;15.07;100.00;100933.97;5211657;28;20056;-80
2023/05/12 07:09:21;;;;;;;4.07;2.20;;;15.10;99.90;;;15.16;100.00;100936.75;5216772;28;20055;-75
2023/05/12 07:11:53;;;;;;;3.33;1.90;;;15.10;99.90;;;15.40;100.00;100931.94;5209300;28;20499;-76
2023/05/12 07:14:25;;;;;;;4.30;1.83;;;15.30;99.90;;;15.65;100.00;100937.63;5227072;28;20051;-77
2023/05/12 07:16:57;;;;;;;2.72;1.92;;;15.50;99.90;;;15.85;100.00;100941.47;5227290;28;22862;-80
2023/05/12 07:19:30;;;;;;;4.20;1.92;;;15.70;99.90;;;15.85;100.00;100949.34;5236327;28;20041;-81
2023/05/12 07:22:02;;;;;;;2.90;1.77;;;15.70;99.90;;;15.78;100.00;100943.94;5235146;28;21072;-80
2023/05/12 07:24:34;;;;;;;2.63;1.88;;;15.70;99.90;;;15.71;100.00;100953.47;5228865;28;20044;-82
2023/05/12 07:27:07;;;;;;;4.40;1.95;;;15.70;99.90;;;15.57;100.00;100939.19;5227451;28;20117;-80
2023/05/12 07:29:39;;;;;;;3.47;2.08;;;15.60;99.90;;;15.51;100.00;100952.22;5211199;28;20812;-80
2023/05/12 07:32:11;;;;;;;3.08;2.03;;;15.50;99.90;;;15.54;100.00;100954.91;5209203;28;20041;-80
2023/05/12 07:34:44;;;;;;;4.43;2.80;;;15.50;99.90;;;15.51;100.00;100957.47;5210968;28;20056;-81
2023/05/12 07:37:16;;;;;;;3.40;1.88;;;15.40;99.90;;;15.56;100.00;100958.44;5206420;28;20049;-80
2023/05/12 07:39:48;;;;;;;2.78;2.05;;;15.40;99.90;;;15.57;100.00;100953.22;5244663;28;20133;-80
2023/05/12 07:42:21;;;;;;;3.55;2.08;;;15.40;99.90;;;15.62;100.00;100958.59;5234971;28;20055;-80
2023/05/12 07:44:53;;;;;;;3.95;2.22;;;15.50;99.90;;;15.63;100.00;100963.88;5212158;28;20045;-79
2023/05/12 07:47:27;;;;;;;2.78;2.28;;;15.50;99.90;;;15.71;100.00;100969.25;5226509;28;20048;-80
2023/05/12 07:50:00;;;;;;;2.88;2.00;;;15.60;99.90;;;15.88;100.00;100965.16;5210082;28;20491;-78
2023/05/12 07:52:33;;;;;;;2.58;1.80;;;15.70;99.90;;;16.11;100.00;100964.66;5215519;28;20513;-78
2023/05/12 07:55:06;;;;;;;2.90;1.92;;;15.90;99.90;;;16.25;100.00;100968.34;5216687;28;20048;-79
2023/05/12 07:57:38;;;;;;;2.13;1.70;;;16.10;99.90;;;16.23;100.00;100976.19;5217647;28;20048;-81
2023/05/12 08:00:13;;;;;;;3.08;2.08;;;16.20;99.90;;;16.19;100.00;100978.78;5217430;28;20045;-81
2023/05/12 08:02:45;;;;;;;3.17;2.00;;;16.10;99.90;;;16.23;100.00;100975.31;5230681;28;20091;-81
2023/05/12 08:05:19;;;;;;;1.98;1.67;;;16.10;99.90;;;16.35;100.00;100983.38;5208851;28;20049;-81
2023/05/12 08:07:51;;;;;;;2.58;1.73;;;16.10;99.90;;;16.42;100.00;100987.88;5233047;28;20406;-82
2023/05/12 08:10:28;;;;;;;2.75;1.55;;;16.20;99.90;;;16.33;100.00;100978.97;5264220;28;20037;-88
2023/05/12 08:13:00;;;;;;;1.70;1.38;;;16.20;99.90;;;16.25;100.00;100986.78;5247259;28;20041;-81
2023/05/12 08:15:32;;;;;;;2.65;1.70;;;16.10;99.90;;;16.25;100.00;100982.38;5220593;28;20116;-82
2023/05/12 08:18:04;;;;;;;1.95;1.60;;;16.10;99.90;;;16.33;100.00;100979.88;5237878;28;20492;-82
2023/05/12 08:20:38;;;;;;;3.90;2.00;;;16.10;99.90;;;16.53;100.00;100988.03;5220883;28;20041;-83
2023/05/12 08:23:10;;;;;;;2.03;1.40;;;16.20;99.90;;;16.69;100.00;100997.00;5233784;28;20080;-82
2023/05/12 08:25:43;;;;;;;2.55;1.48;;;16.30;99.90;;;16.95;100.00;100984.19;5232990;28;20048;-81
2023/05/12 08:28:15;;;;;;;2.05;1.55;;;16.50;99.90;;;17.48;100.00;100982.16;5232469;28;20038;-82
2023/05/12 08:30:47;;;;;;;2.25;1.65;;;16.80;99.90;;;17.89;100.00;100985.19;5231911;28;20040;-82
2023/05/12 08:33:19;;;;;;;2.85;1.33;;;17.20;99.90;;;18.19;100.00;100988.91;5233778;28;20045;-82
2023/05/12 08:35:53;;;;;;;3.65;1.33;;;17.40;99.90;;;18.21;100.00;100988.94;5232520;28;20104;-83
2023/05/12 08:38:25;;;;;;;2.40;1.50;;;17.60;99.90;;;18.49;100.00;100982.06;5253546;28;20116;-82
2023/05/12 08:41:12;;;;;;;1.42;1.33;;;17.80;99.90;;;18.85;100.00;100991.97;5238160;28;20040;-83
2023/05/12 08:43:46;;;;;;;1.40;1.23;;;18.00;99.90;;;19.33;98.96;100991.22;5217434;28;20045;-77
2023/05/12 08:46:19;;;;;;;1.85;1.20;;;18.40;99.90;;;19.19;98.58;100999.13;5210596;28;20072;-77
2023/05/12 08:48:53;;;;;;;2.65;1.30;;;18.50;99.90;;;19.07;99.31;101004.34;5226488;28;20048;-76
2023/05/12 08:51:29;;;;;;;1.85;1.38;;;18.40;99.90;;;19.36;99.12;100993.84;5232066;28;20041;-76
2023/05/12 08:54:03;;;;;;;1.77;1.20;;;18.60;99.90;;;19.47;97.95;100999.16;5209865;28;20503;-76
2023/05/12 08:56:37;;;;;;;1.50;1.40;;;18.70;99.90;;;19.32;96.80;101007.06;5239512;28;20041;-77
2023/05/12 08:59:10;;;;;;;1.38;1.25;;;18.60;99.90;;;19.31;97.12;101003.56;5225616;28;20398;-77
2023/05/12 09:01:43;;;;;;;2.13;1.50;;;18.70;99.90;;;19.55;96.83;101007.97;5226600;28;20048;-78
2023/05/12 09:04:16;;;;;;;1.80;1.40;;;18.80;99.90;;;20.36;95.32;101012.44;5255766;22;20057;-75
2023/05/12 09:06:50;;;;;;;1.30;1.10;;;19.20;99.90;;;21.50;90.58;101011.13;5230054;28;20055;-80
2023/05/12 09:09:22;;;;;;;1.35;1.10;;;19.90;99.90;;;22.68;86.23;101008.28;5198984;28;20044;-75
2023/05/12 09:11:57;;;;;;;1.45;0.80;;;20.70;99.90;;;23.26;81.04;101008.47;5240045;28;20040;-76
2023/05/12 09:14:34;;;;;;;1.90;1.20;;;21.30;99.30;;;22.74;80.68;101013.53;5237161;28;20044;-76
2023/05/12 09:17:07;;;;;;;1.55;1.40;;;21.30;98.20;;;21.67;81.77;101014.53;5220745;28;20052;-78
2023/05/12 09:19:39;;;;;;;3.28;1.42;;;20.80;97.20;;;21.13;85.28;101012.19;5223136;28;20043;-75
2023/05/12 09:22:14;;;;;;;1.33;1.10;;;20.40;98.40;;;20.76;87.28;101011.47;5220467;28;20044;-76
2023/05/12 09:24:46;;;;;;;1.50;1.30;;;20.10;99.20;;;20.47;88.74;101019.47;5240988;28;20048;-75
2023/05/12 09:27:25;;;;;;;2.65;1.50;;;19.90;99.60;;;20.07;89.14;101023.91;5228166;28;20048;-78
2023/05/12 09:29:57;;;;;;;1.90;1.60;;;19.60;99.60;;;19.51;91.09;101016.81;5210546;28;20052;-76
2023/05/12 09:32:35;;;;;;;2.55;1.88;;;19.30;99.90;;;19.32;92.15;101015.00;5223693;28;20036;-75
2023/05/12 09:35:10;;;;;;;2.30;1.50;;;19.00;99.90;;;19.25;93.48;101014.97;5248172;28;20055;-77
2023/05/12 09:37:46;;;;;;;1.50;1.40;;;18.90;99.90;;;19.35;93.58;101015.88;5248783;28;20383;-74
2023/05/12 09:40:18;;;;;;;2.28;1.85;;;19.00;99.90;;;19.37;92.43;101016.78;5237275;28;20075;-82
2023/05/12 09:42:51;;;;;;;2.33;1.70;;;18.90;99.90;;;19.31;93.17;101014.13;5222257;28;20033;-80
2023/05/12 09:45:24;;;;;;;2.35;1.48;;;18.90;99.90;;;19.24;93.80;101023.78;5222287;28;20048;-82
2023/05/12 09:47:56;;;;;;;2.92;1.88;;;18.80;99.90;;;19.14;91.84;101023.75;5222239;28;20044;-81
2023/05/12 09:50:28;;;;;;;2.35;1.55;;;18.80;99.90;;;19.00;92.00;101029.00;5210386;28;20049;-83
2023/05/12 09:53:02;;;;;;;2.53;1.70;;;18.70;99.90;;;18.90;92.85;101022.75;5231113;28;20470;-82
2023/05/12 09:55:34;;;;;;;1.92;1.52;;;18.60;99.90;;;18.91;92.38;101015.75;5247160;28;20140;-84
2023/05/12 09:58:09;;;;;;;2.35;1.52;;;18.60;99.90;;;19.02;91.90;101021.94;5222412;28;20048;-83
2023/05/12 10:00:42;;;;;;;3.15;1.73;;;18.60;99.90;;;19.22;91.24;101014.97;5232125;28;20403;-83
2023/05/12 10:03:17;;;;;;;4.65;1.70;;;18.80;99.90;;;19.56;91.31;101020.34;5214087;28;20045;-83
2023/05/12 10:05:51;;;;;;;2.13;1.30;;;19.00;99.90;;;19.97;90.78;101022.16;5240765;28;20045;-82
2023/05/12 10:08:28;;;;;;;;;;;19.30;99.90;;;20.07;85.33;101010.69;5205980;28;20136;-81
2023/05/12 10:11:02;;;;;;;2.75;2.00;;;19.50;98.50;;;20.00;83.52;101011.56;5223047;28;19920;-81
2023/05/12 10:13:35;;;;;;;2.40;1.60;;;19.50;97.10;;;20.00;85.94;101017.75;5208550;28;20518;-81
2023/05/12 10:16:08;;;;;;;2.25;1.73;;;19.50;98.10;;;19.93;86.01;101015.97;5210893;28;20076;-83
2023/05/12 10:18:43;;;;;;;2.80;1.73;;;19.50;98.00;;;19.83;86.49;101010.72;5229544;28;20041;-82
2023/05/12 10:21:15;;;;;;;2.83;1.85;;;19.40;98.10;;;19.72;86.04;101030.09;5230720;28;20094;-83
2023/05/12 10:23:50;;;;;;;1.77;1.40;;;19.30;97.80;;;19.82;86.09;101017.72;5238334;28;20495;-81
2023/05/12 10:26:23;;;;;;;2.55;1.83;;;19.40;97.80;;;20.17;85.17;101014.22;5228131;28;20132;-81
2023/05/12 10:28:55;;;;;;;2.20;1.70;;;19.60;97.50;;;20.35;81.94;101000.97;5251483;28;20124;-83